Time;durP1;ratioP1;P1;durP2;ratioP2;P2;SDS_P1;SDS_P2;PMS_P1;PMS_P2;Temp;Humidity;BMP_temperature;BMP_pressure;BME280_temperature;BME280_humidity;BME280_pressure;Samples;Min_cycle;Max_cycle;Signal;HPM_P1;HPM_P2
2022/10/17 00:01:11;;;;;;;12.95;4.45;;;11.80;99.90;;;;;;6066054;23;20515;-84
2022/10/17 00:03:38;;;;;;;15.95;4.38;;;11.80;99.90;;;;;;6064020;23;20069;-83
2022/10/17 00:06:09;;;;;;;13.70;4.10;;;11.80;99.90;;;;;;6019002;23;20392;-84
2022/10/17 00:08:36;;;;;;;13.10;4.07;;;11.80;99.90;;;;;;6063748;23;20328;-84
2022/10/17 00:11:06;;;;;;;12.45;4.30;;;11.70;99.90;;;;;;6038544;23;20015;-84
2022/10/17 00:13:32;;;;;;;11.15;3.88;;;11.70;99.90;;;;;;6041681;23;20018;-84
2022/10/17 00:15:58;;;;;;;11.45;4.15;;;11.70;99.90;;;;;;6039852;23;20090;-84
2022/10/17 00:18:24;;;;;;;12.90;4.82;;;11.70;99.90;;;;;;6064120;23;20046;-84
2022/10/17 00:20:50;;;;;;;10.90;4.10;;;11.70;99.90;;;;;;6039690;23;20018;-84
2022/10/17 00:23:16;;;;;;;14.30;4.50;;;11.70;99.90;;;;;;6038703;23;20023;-84
2022/10/17 00:25:42;;;;;;;11.88;4.15;;;11.70;99.90;;;;;;6067864;23;20019;-84
2022/10/17 00:28:09;;;;;;;15.48;4.60;;;11.70;99.90;;;;;;6062390;23;20026;-84
2022/10/17 00:30:36;;;;;;;12.57;4.25;;;11.70;99.90;;;;;;6039496;23;20469;-83
2022/10/17 00:33:01;;;;;;;12.68;4.43;;;11.60;99.90;;;;;;6039129;23;20019;-84
2022/10/17 00:35:27;;;;;;;16.52;4.32;;;11.60;99.90;;;;;;6040618;23;20021;-84
2022/10/17 00:37:53;;;;;;;15.23;4.75;;;12.00;99.90;;;;;;6038905;23;20090;-84
2022/10/17 00:40:18;;;;;;;15.50;4.32;;;11.60;99.90;;;;;;6062923;23;20010;-84
2022/10/17 00:42:44;;;;;;;13.05;4.70;;;11.60;99.90;;;;;;6042271;23;20070;-84
2022/10/17 00:45:23;;;;;;;13.18;5.07;;;11.60;99.90;;;;;;6039638;23;20041;-84
2022/10/17 00:48:10;;;;;;;14.13;4.55;;;11.60;99.90;;;;;;6063405;23;20021;-84
2022/10/17 00:50:39;;;;;;;12.63;4.45;;;11.50;99.90;;;;;;6042062;23;20019;-84
2022/10/17 00:53:07;;;;;;;14.85;4.45;;;11.60;99.90;;;;;;6061000;23;20034;-84
2022/10/17 00:55:41;;;;;;;12.38;4.20;;;11.60;99.90;;;;;;6065881;23;20014;-84
2022/10/17 00:58:07;;;;;;;16.00;4.55;;;11.60;99.90;;;;;;6067827;23;20025;-84
2022/10/17 01:00:33;;;;;;;11.90;3.92;;;11.60;99.90;;;;;;6017432;23;20015;-84
2022/10/17 01:02:59;;;;;;;16.23;4.13;;;11.60;99.90;;;;;;6039112;23;20019;-84
2022/10/17 01:05:25;;;;;;;12.70;3.80;;;11.70;99.90;;;;;;6062584;23;20073;-84
2022/10/17 01:07:52;;;;;;;12.70;4.07;;;11.70;99.90;;;;;;6038240;23;20070;-84
2022/10/17 01:10:18;;;;;;;13.40;4.07;;;11.70;99.90;;;;;;6032777;23;20037;-84
2022/10/17 01:13:02;;;;;;;14.18;3.78;;;11.80;99.90;;;;;;6043144;23;20353;-84
2022/10/17 01:15:51;;;;;;;13.55;3.70;;;11.80;99.90;;;;;;6038982;23;20022;-84
2022/10/17 01:18:19;;;;;;;15.13;3.92;;;11.90;99.90;;;;;;6063088;23;20011;-84
2022/10/17 01:21:19;;;;;;;12.40;4.18;;;11.90;99.90;;;;;;6042780;23;20018;-84
2022/10/17 01:24:03;;;;;;;12.18;3.97;;;12.00;99.90;;;;;;6042820;23;20483;-84
2022/10/17 01:27:05;;;;;;;9.85;3.55;;;12.00;99.90;;;;;;6067920;23;20014;-84
2022/10/17 01:29:54;;;;;;;11.05;3.63;;;12.00;99.90;;;;;;6067277;23;20019;-84
2022/10/17 01:32:39;;;;;;;12.20;4.22;;;12.10;99.90;;;;;;6038617;23;20423;-84
2022/10/17 01:35:22;;;;;;;13.00;4.18;;;12.10;99.90;;;;;;6066429;23;20404;-84
2022/10/17 01:37:57;;;;;;;12.57;4.30;;;12.10;99.90;;;;;;6044514;23;20449;-83
2022/10/17 01:40:35;;;;;;;11.30;3.72;;;12.20;99.90;;;;;;6043727;23;20018;-84
2022/10/17 01:43:11;;;;;;;11.98;4.20;;;12.10;99.90;;;;;;6043963;23;20136;-84
2022/10/17 01:45:50;;;;;;;14.60;3.80;;;12.20;99.90;;;;;;6067629;23;20022;-84
2022/10/17 01:48:21;;;;;;;14.48;4.18;;;12.20;99.90;;;;;;6089220;23;20022;-84
2022/10/17 01:50:52;;;;;;;11.48;3.80;;;12.30;99.90;;;;;;6043645;23;20097;-84
2022/10/17 01:53:27;;;;;;;11.93;4.20;;;12.30;99.90;;;;;;6089981;23;20121;-84
2022/10/17 01:55:58;;;;;;;11.20;4.10;;;12.30;99.90;;;;;;6043606;23;20097;-84
2022/10/17 01:58:29;;;;;;;11.82;4.55;;;12.40;99.90;;;;;;6043089;23;20123;-83
2022/10/17 02:00:58;;;;;;;14.18;4.88;;;12.40;99.90;;;;;;6067153;23;20055;-84
2022/10/17 02:03:26;;;;;;;14.85;4.63;;;12.60;99.90;;;;;;6042944;23;20018;-84
2022/10/17 02:05:52;;;;;;;11.50;4.07;;;12.40;99.90;;;;;;6067087;23;20062;-84
2022/10/17 02:08:26;;;;;;;12.07;4.47;;;12.50;99.90;;;;;;6066713;23;20026;-84
2022/10/17 02:11:05;;;;;;;14.45;5.15;;;12.50;99.90;;;;;;6067534;23;20050;-83
2022/10/17 02:14:02;;;;;;;12.23;4.68;;;12.50;99.90;;;;;;6041435;23;20014;-84
2022/10/17 02:17:06;;;;;;;13.48;5.20;;;12.50;99.90;;;;;;6067152;23;20014;-84
2022/10/17 02:19:50;;;;;;;13.02;5.57;;;12.50;99.90;;;;;;6067164;23;20026;-84
2022/10/17 02:22:24;;;;;;;11.13;4.80;;;12.50;99.90;;;;;;6042704;23;20414;-83
2022/10/17 02:25:01;;;;;;;14.95;5.18;;;12.50;99.90;;;;;;6067723;23;20014;-83
2022/10/17 02:27:46;;;;;;;12.57;5.38;;;12.50;99.90;;;;;;6042979;23;20353;-83
2022/10/17 02:30:35;;;;;;;14.68;5.20;;;12.50;99.90;;;;;;6041161;23;20022;-84
2022/10/17 02:33:13;;;;;;;10.98;5.32;;;12.50;99.90;;;;;;6042262;23;20824;-84
2022/10/17 02:35:44;;;;;;;10.77;4.63;;;12.50;99.90;;;;;;6043368;23;20018;-83
2022/10/17 02:38:13;;;;;;;13.75;5.38;;;12.50;99.90;;;;;;6066725;23;20014;-84
2022/10/17 02:40:40;;;;;;;12.32;5.60;;;12.40;99.90;;;;;;6043875;23;20014;-84
2022/10/17 02:43:07;;;;;;;12.13;5.45;;;12.40;99.90;;;;;;6067081;23;20022;-84
2022/10/17 02:45:35;;;;;;;12.10;5.38;;;12.40;99.90;;;;;;6066640;23;20018;-84
2022/10/17 02:48:06;;;;;;;10.80;5.88;;;12.40;99.90;;;;;;6066618;23;20014;-84
2022/10/17 02:51:16;;;;;;;13.98;6.50;;;12.40;99.90;;;;;;6042188;23;20326;-84
2022/10/17 02:53:47;;;;;;;14.02;6.05;;;12.40;99.90;;;;;;5966400;23;20396;-84
2022/10/17 02:56:17;;;;;;;13.85;6.90;;;12.40;99.90;;;;;;6066635;23;20073;-84
2022/10/17 02:58:47;;;;;;;11.93;6.47;;;12.40;99.90;;;;;;6041942;23;20018;-83
2022/10/17 03:01:14;;;;;;;14.77;6.25;;;12.40;99.90;;;;;;6043414;23;20450;-83
2022/10/17 03:03:40;;;;;;;15.35;6.40;;;12.40;99.90;;;;;;6043191;23;20029;-84
2022/10/17 03:06:05;;;;;;;17.70;7.05;;;12.40;99.90;;;;;;6041739;23;20023;-84
2022/10/17 03:08:31;;;;;;;14.35;7.20;;;12.40;99.90;;;;;;6066650;23;20061;-84
2022/10/17 03:10:57;;;;;;;12.35;6.82;;;12.40;99.90;;;;;;6042911;23;20019;-84
2022/10/17 03:13:22;;;;;;;13.68;6.78;;;12.40;99.90;;;;;;6042625;23;20366;-84
2022/10/17 03:15:48;;;;;;;14.18;7.53;;;12.40;99.90;;;;;;6019139;23;20449;-84
2022/10/17 03:18:14;;;;;;;12.43;7.00;;;12.40;99.90;;;;;;6042793;23;20057;-84
2022/10/17 03:20:39;;;;;;;12.07;7.25;;;12.40;99.90;;;;;;6042536;23;20026;-84
2022/10/17 03:23:05;;;;;;;14.13;7.22;;;12.40;99.90;;;;;;6043348;23;20399;-84
2022/10/17 03:25:31;;;;;;;16.70;7.72;;;12.40;99.90;;;;;;6019475;23;20025;-84
2022/10/17 03:27:59;;;;;;;15.13;8.50;;;12.40;99.90;;;;;;6042933;23;20025;-84
2022/10/17 03:30:25;;;;;;;13.00;7.53;;;12.40;99.90;;;;;;6067276;23;20014;-84
2022/10/17 03:32:50;;;;;;;14.00;8.27;;;12.50;99.90;;;;;;6066706;23;20479;-83
2022/10/17 03:35:16;;;;;;;13.15;7.85;;;12.40;99.90;;;;;;6066409;23;20023;-84
2022/10/17 03:37:42;;;;;;;14.68;8.32;;;12.50;99.90;;;;;;6042372;23;20034;-83
2022/10/17 03:40:08;;;;;;;16.10;8.25;;;12.40;99.90;;;;;;6042904;23;20478;-83
2022/10/17 03:42:33;;;;;;;14.73;8.25;;;12.50;99.90;;;;;;6042127;23;20014;-84
2022/10/17 03:44:59;;;;;;;13.02;8.55;;;12.40;99.90;;;;;;6043710;23;20053;-84
2022/10/17 03:47:25;;;;;;;13.30;8.07;;;12.40;99.90;;;;;;6020668;23;20024;-83
2022/10/17 03:49:52;;;;;;;13.98;8.60;;;12.50;99.90;;;;;;6043617;23;20519;-84
2022/10/17 03:52:18;;;;;;;14.82;8.50;;;12.40;99.90;;;;;;6020716;23;20074;-83
2022/10/17 03:54:44;;;;;;;15.48;9.40;;;12.40;99.90;;;;;;6044882;23;20014;-83
2022/10/17 03:57:09;;;;;;;13.65;8.93;;;12.40;99.90;;;;;;6068576;23;20010;-83
2022/10/17 03:59:35;;;;;;;14.18;7.55;;;12.40;99.90;;;;;;6021123;23;20026;-83
2022/10/17 04:02:01;;;;;;;14.18;7.43;;;12.40;99.90;;;;;;6045345;23;20022;-83
2022/10/17 04:04:26;;;;;;;13.65;7.10;;;12.40;99.90;;;;;;6067383;23;20018;-83
2022/10/17 04:06:52;;;;;;;15.23;7.35;;;12.40;99.90;;;;;;6020297;23;20014;-84
2022/10/17 04:09:18;;;;;;;14.57;7.45;;;12.40;99.90;;;;;;6067501;23;20018;-85
2022/10/17 04:11:43;;;;;;;14.15;6.82;;;12.40;99.90;;;;;;6045644;23;20057;-84
2022/10/17 04:14:09;;;;;;;13.50;6.70;;;12.40;99.90;;;;;;6020023;23;20045;-84
2022/10/17 04:16:35;;;;;;;12.73;7.60;;;12.40;99.90;;;;;;6044588;23;20014;-84
2022/10/17 04:19:01;;;;;;;12.07;6.97;;;12.50;99.90;;;;;;6044272;23;20021;-83
2022/10/17 04:21:28;;;;;;;14.27;6.90;;;12.40;99.90;;;;;;6069107;23;20010;-84
2022/10/17 04:23:55;;;;;;;12.90;7.25;;;12.40;99.90;;;;;;6020910;23;20973;-84
2022/10/17 04:26:24;;;;;;;12.55;7.22;;;12.40;99.90;;;;;;6044811;23;20017;-84
2022/10/17 04:28:50;;;;;;;13.85;8.13;;;12.40;99.90;;;;;;6066736;23;20089;-84
2022/10/17 04:31:17;;;;;;;15.20;8.20;;;12.50;99.90;;;;;;6044199;23;20015;-83
2022/10/17 04:33:46;;;;;;;14.73;8.80;;;12.50;99.90;;;;;;6043778;23;20017;-84
2022/10/17 04:36:14;;;;;;;13.93;8.45;;;12.50;99.90;;;;;;6067649;23;20010;-83
2022/10/17 04:38:40;;;;;;;13.35;8.43;;;12.60;99.90;;;;;;6044205;23;20050;-83
2022/10/17 04:41:11;;;;;;;13.10;7.65;;;12.60;99.90;;;;;;6042464;23;20018;-83
2022/10/17 04:43:38;;;;;;;14.20;7.85;;;12.70;99.90;;;;;;6067666;23;20022;-83
2022/10/17 04:46:09;;;;;;;13.30;7.93;;;12.70;99.90;;;;;;6066936;23;20026;-84
2022/10/17 04:48:35;;;;;;;19.15;8.60;;;12.70;99.90;;;;;;6043451;23;20022;-83
2022/10/17 04:51:04;;;;;;;14.15;7.88;;;12.70;99.90;;;;;;6043903;23;20352;-83
2022/10/17 04:53:32;;;;;;;13.00;7.82;;;12.80;99.90;;;;;;6041500;23;20010;-83
2022/10/17 04:55:58;;;;;;;15.13;8.80;;;12.90;99.90;;;;;;6064211;23;20077;-83
2022/10/17 04:58:24;;;;;;;13.98;8.00;;;12.80;99.90;;;;;;6042961;23;20393;-83
2022/10/17 05:00:49;;;;;;;14.93;8.90;;;12.80;99.90;;;;;;6067548;23;20404;-83
2022/10/17 05:03:15;;;;;;;13.95;8.63;;;12.90;99.90;;;;;;6067201;23;20022;-83
2022/10/17 05:05:42;;;;;;;17.05;8.95;;;12.90;99.90;;;;;;6067943;23;20021;-83
2022/10/17 05:08:09;;;;;;;15.05;8.57;;;12.90;99.90;;;;;;6043211;23;20023;-83
2022/10/17 05:10:36;;;;;;;14.98;8.75;;;13.00;99.90;;;;;;6044184;23;20094;-83
2022/10/17 05:13:02;;;;;;;15.15;9.18;;;13.00;99.90;;;;;;6041769;23;20018;-83
2022/10/17 05:15:28;;;;;;;14.50;9.38;;;13.00;99.90;;;;;;6044079;23;20444;-83
2022/10/17 05:17:55;;;;;;;15.63;9.98;;;13.00;99.90;;;;;;6021048;23;20352;-83
2022/10/17 05:20:20;;;;;;;17.27;10.00;;;13.10;99.90;;;;;;6041015;23;20018;-83
2022/10/17 05:22:46;;;;;;;14.07;9.57;;;13.10;99.90;;;;;;6041758;23;20077;-84
2022/10/17 05:25:12;;;;;;;14.70;9.77;;;13.10;99.90;;;;;;6043539;23;20283;-84
2022/10/17 05:27:37;;;;;;;14.80;9.40;;;13.10;99.90;;;;;;6020329;23;20025;-84
2022/10/17 05:30:04;;;;;;;15.05;9.88;;;13.10;99.90;;;;;;6043535;23;20456;-84
2022/10/17 05:32:30;;;;;;;16.40;9.80;;;13.20;99.90;;;;;;6067218;23;20021;-84
2022/10/17 05:34:55;;;;;;;16.00;10.45;;;13.10;99.90;;;;;;6042591;23;20014;-84
2022/10/17 05:37:21;;;;;;;15.00;10.00;;;13.10;99.90;;;;;;6067804;23;20516;-84
2022/10/17 05:39:47;;;;;;;16.60;9.80;;;13.20;99.90;;;;;;6067630;23;20029;-84
2022/10/17 05:42:12;;;;;;;16.20;11.02;;;13.30;99.90;;;;;;6043581;23;20452;-84
2022/10/17 05:44:40;;;;;;;16.80;10.55;;;13.20;99.90;;;;;;6042990;23;20030;-84
2022/10/17 05:47:06;;;;;;;17.52;10.52;;;13.20;99.90;;;;;;6043943;23;20030;-84
2022/10/17 05:49:32;;;;;;;16.20;10.70;;;13.20;99.90;;;;;;6043800;23;20259;-84
2022/10/17 05:51:58;;;;;;;16.05;10.77;;;13.20;99.90;;;;;;6043913;23;20046;-84
2022/10/17 05:54:23;;;;;;;16.27;11.73;;;13.20;99.90;;;;;;6042618;23;20015;-84
2022/10/17 05:56:53;;;;;;;15.75;10.68;;;13.20;99.90;;;;;;6043498;23;20089;-84
2022/10/17 05:59:20;;;;;;;16.85;10.95;;;13.30;99.90;;;;;;6034661;23;20020;-85
2022/10/17 06:01:46;;;;;;;18.27;11.23;;;13.30;99.90;;;;;;6038370;23;20057;-86
2022/10/17 06:04:12;;;;;;;15.68;10.77;;;13.30;99.90;;;;;;6064906;23;20015;-85
2022/10/17 06:06:39;;;;;;;19.40;11.90;;;13.30;99.90;;;;;;6042665;23;20010;-85
2022/10/17 06:09:05;;;;;;;16.42;11.27;;;13.30;99.90;;;;;;6063973;23;20151;-86
2022/10/17 06:11:31;;;;;;;16.92;11.43;;;13.30;99.90;;;;;;6040791;23;20011;-84
2022/10/17 06:13:56;;;;;;;18.50;11.73;;;13.40;99.90;;;;;;6041307;23;20010;-84
2022/10/17 06:16:22;;;;;;;16.40;11.68;;;13.30;99.90;;;;;;6042179;23;20090;-85
2022/10/17 06:18:48;;;;;;;20.00;13.20;;;13.40;99.90;;;;;;6043912;23;20044;-85
2022/10/17 06:21:17;;;;;;;16.58;11.25;;;13.40;99.90;;;;;;6066936;23;20018;-85
2022/10/17 06:23:43;;;;;;;17.10;11.63;;;13.40;99.90;;;;;;6041525;23;20082;-84
2022/10/17 06:26:09;;;;;;;19.58;11.40;;;13.40;99.90;;;;;;6067730;23;20022;-84
2022/10/17 06:28:35;;;;;;;18.00;12.00;;;13.40;99.90;;;;;;6065938;23;20022;-85
2022/10/17 06:31:12;;;;;;;17.38;11.60;;;13.50;99.90;;;;;;6067211;23;20018;-86
2022/10/17 06:33:39;;;;;;;18.40;11.70;;;13.50;99.90;;;;;;6066272;23;20014;-84
2022/10/17 06:36:06;;;;;;;18.17;11.65;;;13.50;99.90;;;;;;6067670;23;20032;-84
2022/10/17 06:38:34;;;;;;;17.88;11.52;;;13.50;99.90;;;;;;6042939;23;20294;-84
2022/10/17 06:41:13;;;;;;;17.27;11.75;;;13.50;99.90;;;;;;6043206;23;20018;-85
2022/10/17 06:43:45;;;;;;;19.80;11.80;;;13.60;99.90;;;;;;6042648;23;20114;-86
2022/10/17 06:46:11;;;;;;;18.25;12.00;;;13.60;99.90;;;;;;6044119;23;20018;-84
2022/10/17 06:48:37;;;;;;;18.27;11.30;;;13.60;99.90;;;;;;6043493;23;20049;-83
2022/10/17 06:51:04;;;;;;;17.65;10.95;;;13.60;99.90;;;;;;6043048;23;20053;-83
2022/10/17 06:53:33;;;;;;;17.80;11.40;;;13.60;99.90;;;;;;6042094;23;20014;-83
2022/10/17 06:56:03;;;;;;;16.88;11.82;;;13.60;99.90;;;;;;6042496;23;20349;-84
2022/10/17 06:58:34;;;;;;;16.48;12.02;;;13.70;99.90;;;;;;6066298;23;20018;-84
2022/10/17 07:01:01;;;;;;;17.38;11.98;;;13.70;99.90;;;;;;6042239;23;20337;-82
2022/10/17 07:03:27;;;;;;;18.67;11.57;;;13.70;99.90;;;;;;6042262;23;20037;-83
2022/10/17 07:05:54;;;;;;;16.88;11.40;;;13.70;99.90;;;;;;6067276;23;20444;-83
2022/10/17 07:08:20;;;;;;;16.25;11.45;;;13.80;99.90;;;;;;6042160;23;20093;-83
2022/10/17 07:10:46;;;;;;;17.13;11.10;;;13.80;99.90;;;;;;6042323;23;20069;-86
2022/10/17 07:13:12;;;;;;;16.38;11.35;;;14.20;99.90;;;;;;6043623;23;20116;-85
2022/10/17 07:15:38;;;;;;;21.83;12.27;;;13.90;99.90;;;;;;6043810;23;20036;-85
2022/10/17 07:18:05;;;;;;;18.45;11.25;;;13.90;99.90;;;;;;6042482;23;20417;-85
2022/10/17 07:20:30;;;;;;;17.02;11.32;;;14.00;99.90;;;;;;6042081;23;20348;-84
2022/10/17 07:22:56;;;;;;;19.80;10.98;;;14.00;99.90;;;;;;6041434;23;20022;-83
2022/10/17 07:25:22;;;;;;;18.50;11.50;;;14.10;99.90;;;;;;6065468;23;20034;-85
2022/10/17 07:27:48;;;;;;;19.73;12.00;;;14.20;99.90;;;;;;6019814;23;20014;-84
2022/10/17 07:30:14;;;;;;;17.92;11.43;;;14.30;99.90;;;;;;6065537;23;20021;-85
2022/10/17 07:32:41;;;;;;;16.48;10.30;;;14.40;99.90;;;;;;6043207;23;20120;-85
2022/10/17 07:35:08;;;;;;;16.77;11.27;;;14.40;99.90;;;;;;6066729;23;20010;-84
2022/10/17 07:37:34;;;;;;;16.13;10.65;;;14.50;99.90;;;;;;6067246;23;20115;-85
2022/10/17 07:40:00;;;;;;;18.73;11.65;;;14.60;99.90;;;;;;6041888;23;20476;-84
2022/10/17 07:42:27;;;;;;;17.30;11.35;;;14.60;99.90;;;;;;6066365;23;20356;-85
2022/10/17 07:44:53;;;;;;;17.55;11.45;;;14.70;99.90;;;;;;6042522;23;20022;-84
2022/10/17 07:47:21;;;;;;;17.98;11.32;;;14.70;99.90;;;;;;6067555;23;20348;-83
2022/10/17 07:49:47;;;;;;;16.27;10.40;;;14.80;99.90;;;;;;6042504;23;20085;-83
2022/10/17 07:52:13;;;;;;;15.73;9.77;;;14.80;99.90;;;;;;6042223;23;20042;-84
2022/10/17 07:54:39;;;;;;;16.88;10.85;;;14.90;99.90;;;;;;6042235;23;20022;-84
2022/10/17 07:57:06;;;;;;;16.88;11.07;;;14.90;99.90;;;;;;6042422;23;20014;-86
2022/10/17 07:59:33;;;;;;;15.57;10.70;;;15.00;99.90;;;;;;6066733;23;20015;-85
2022/10/17 08:01:59;;;;;;;16.25;11.15;;;15.10;99.90;;;;;;6040463;23;20049;-86
2022/10/17 08:04:25;;;;;;;17.48;11.20;;;15.10;99.90;;;;;;6065012;23;20018;-86
2022/10/17 08:06:52;;;;;;;21.13;10.57;;;15.20;99.90;;;;;;6066063;23;20440;-85
2022/10/17 08:09:17;;;;;;;16.15;10.35;;;15.30;99.90;;;;;;6065580;23;20046;-85
2022/10/17 08:11:43;;;;;;;16.10;10.35;;;15.50;99.90;;;;;;6040999;23;20023;-85
2022/10/17 08:14:09;;;;;;;16.65;10.73;;;15.60;99.90;;;;;;6041862;23;20116;-86
2022/10/17 08:16:36;;;;;;;16.55;10.07;;;15.80;99.90;;;;;;6065754;23;20057;-86
2022/10/17 08:19:02;;;;;;;16.05;9.55;;;15.80;99.90;;;;;;6042706;23;20312;-85
2022/10/17 08:21:27;;;;;;;15.20;9.52;;;15.90;99.90;;;;;;6042675;23;20018;-84
2022/10/17 08:23:53;;;;;;;15.10;9.07;;;15.90;99.90;;;;;;6019011;23;20404;-84
2022/10/17 08:26:19;;;;;;;16.58;8.32;;;16.00;99.90;;;;;;6017965;23;20015;-84
2022/10/17 08:28:45;;;;;;;16.10;8.65;;;16.10;99.90;;;;;;6042060;23;20022;-84
2022/10/17 08:31:14;;;;;;;14.75;8.40;;;16.10;99.90;;;;;;6043857;23;20050;-84
2022/10/17 08:33:41;;;;;;;15.48;8.82;;;16.20;99.90;;;;;;6043407;23;20349;-85
2022/10/17 08:36:07;;;;;;;14.15;8.55;;;16.30;99.90;;;;;;6018781;23;20021;-84
2022/10/17 08:38:35;;;;;;;14.48;8.55;;;16.30;99.90;;;;;;6042699;23;20010;-84
2022/10/17 08:41:25;;;;;;;14.77;8.10;;;16.40;99.90;;;;;;6069148;23;20025;-86
2022/10/17 08:44:11;;;;;;;13.07;8.35;;;16.40;99.90;;;;;;6043307;23;20655;-84
2022/10/17 08:46:41;;;;;;;12.32;8.20;;;16.40;99.90;;;;;;6043373;23;20120;-84
2022/10/17 08:49:32;;;;;;;15.40;8.05;;;16.50;99.90;;;;;;6044065;23;20018;-84
2022/10/17 08:52:05;;;;;;;15.43;8.88;;;16.50;99.90;;;;;;6067837;23;20026;-84
2022/10/17 08:54:45;;;;;;;19.17;9.05;;;16.60;99.90;;;;;;6043665;23;20038;-85
2022/10/17 08:57:14;;;;;;;17.20;8.48;;;16.60;99.90;;;;;;6042990;23;20050;-85
2022/10/17 08:59:41;;;;;;;14.25;8.73;;;16.60;99.90;;;;;;6019709;23;20014;-85
2022/10/17 09:02:26;;;;;;;13.27;7.70;;;16.70;99.90;;;;;;6067558;23;20053;-86
2022/10/17 09:05:13;;;;;;;15.48;8.00;;;16.70;99.90;;;;;;6040794;23;20010;-85
2022/10/17 09:07:59;;;;;;;16.67;7.65;;;16.80;99.90;;;;;;6043970;23;20022;-86
2022/10/17 09:10:31;;;;;;;13.82;7.78;;;16.80;99.90;;;;;;6044584;23;20025;-85
2022/10/17 09:13:11;;;;;;;13.52;6.97;;;16.80;99.90;;;;;;6043639;23;20042;-86
2022/10/17 09:16:22;;;;;;;15.00;7.07;;;16.70;99.90;;;;;;6042054;23;20021;-84
2022/10/17 09:19:07;;;;;;;13.25;7.53;;;16.70;99.90;;;;;;6067780;23;20053;-85
2022/10/17 09:21:36;;;;;;;13.18;7.13;;;16.80;99.90;;;;;;6043058;23;20015;-84
2022/10/17 09:24:10;;;;;;;12.95;7.15;;;16.80;99.90;;;;;;6043165;23;20014;-85
2022/10/17 09:26:39;;;;;;;12.95;7.22;;;16.80;99.90;;;;;;6043414;23;20018;-86
2022/10/17 09:29:36;;;;;;;15.13;7.03;;;16.90;99.90;;;;;;6044052;23;20015;-85
2022/10/17 09:32:07;;;;;;;12.82;6.90;;;16.90;99.90;;;;;;6037733;23;20021;-84
2022/10/17 09:34:33;;;;;;;14.25;7.00;;;16.90;99.90;;;;;;6044040;23;20053;-84
2022/10/17 09:37:00;;;;;;;14.40;7.05;;;16.90;99.90;;;;;;6020240;23;20018;-84
2022/10/17 09:39:30;;;;;;;13.10;7.40;;;16.90;99.90;;;;;;6044437;23;20010;-86
2022/10/17 09:41:59;;;;;;;13.63;6.68;;;16.90;99.90;;;;;;6041114;23;20408;-85
2022/10/17 09:44:50;;;;;;;11.48;6.57;;;16.90;99.90;;;;;;6066509;23;20186;-84
2022/10/17 09:47:21;;;;;;;13.60;6.57;;;16.90;99.90;;;;;;6068008;23;20022;-86
2022/10/17 09:49:48;;;;;;;12.05;6.10;;;16.90;99.90;;;;;;6041819;23;20065;-85
2022/10/17 09:52:19;;;;;;;14.25;6.72;;;16.90;99.90;;;;;;6066260;23;20014;-86
2022/10/17 09:54:51;;;;;;;12.82;6.32;;;17.00;99.90;;;;;;6065277;23;20093;-85
2022/10/17 09:57:18;;;;;;;13.98;6.30;;;17.00;99.90;;;;;;6043113;23;20014;-85
2022/10/17 09:59:54;;;;;;;14.20;7.07;;;17.00;99.90;;;;;;6065386;23;20105;-87
2022/10/17 10:02:22;;;;;;;13.02;6.72;;;17.00;99.90;;;;;;6042129;23;20018;-85
2022/10/17 10:04:53;;;;;;;14.68;7.93;;;17.00;99.90;;;;;;6041360;23;20014;-85
2022/10/17 10:07:19;;;;;;;13.20;7.28;;;16.90;99.90;;;;;;6043114;23;20037;-84
2022/10/17 10:09:47;;;;;;;15.45;7.60;;;16.90;99.90;;;;;;6041704;23;20061;-84
2022/10/17 10:12:20;;;;;;;15.27;8.07;;;16.90;99.90;;;;;;6042997;23;20073;-86
2022/10/17 10:14:47;;;;;;;13.77;7.30;;;16.80;99.90;;;;;;6042794;23;20266;-85
2022/10/17 10:17:34;;;;;;;14.25;8.75;;;16.80;99.90;;;;;;6019143;23;20096;-87
2022/10/17 10:20:00;;;;;;;14.80;8.20;;;16.80;99.90;;;;;;6043265;23;20014;-87
2022/10/17 10:22:26;;;;;;;13.27;7.88;;;16.70;99.90;;;;;;6040077;23;20029;-85
2022/10/17 10:25:14;;;;;;;14.77;8.18;;;16.70;99.90;;;;;;6017361;23;20025;-86
2022/10/17 10:27:42;;;;;;;12.40;7.97;;;16.70;99.90;;;;;;6067284;23;20237;-87
2022/10/17 10:30:18;;;;;;;14.27;8.02;;;16.70;99.90;;;;;;6038679;23;20094;-86
2022/10/17 10:32:46;;;;;;;13.10;8.60;;;16.60;99.90;;;;;;6042322;23;20069;-87
2022/10/17 10:35:29;;;;;;;14.82;8.45;;;16.60;99.90;;;;;;6043053;23;20476;-85
2022/10/17 10:37:56;;;;;;;;;;;16.60;99.90;;;;;;6044433;23;20015;-85
2022/10/17 10:40:27;;;;;;;13.63;8.65;;;16.60;99.90;;;;;;6043446;23;19920;-86
2022/10/17 10:42:57;;;;;;;15.20;8.32;;;16.60;99.90;;;;;;6041458;23;20089;-85
2022/10/17 10:45:40;;;;;;;14.05;9.25;;;16.60;99.90;;;;;;6042131;23;20078;-85
2022/10/17 10:48:14;;;;;;;;;;;16.60;99.90;;;;;;6066949;23;20022;-85
2022/10/17 10:51:03;;;;;;;15.93;8.98;;;16.50;99.90;;;;;;6063308;23;19921;-85
2022/10/17 10:53:47;;;;;;;14.50;8.35;;;16.50;99.90;;;;;;6042284;23;20018;-85
2022/10/17 10:56:25;;;;;;;13.48;8.52;;;16.50;99.90;;;;;;6042667;23;20007;-85
2022/10/17 10:59:10;;;;;;;13.70;8.68;;;15.90;99.90;;;;;;6066412;23;20010;-85
2022/10/17 11:01:52;;;;;;;13.10;8.18;;;16.40;99.90;;;;;;6043340;23;20537;-85
2022/10/17 11:04:29;;;;;;;14.70;8.32;;;16.40;99.90;;;;;;6042743;23;20018;-85
2022/10/17 11:07:09;;;;;;;18.33;8.95;;;16.40;99.90;;;;;;6066694;23;20050;-84
2022/10/17 11:10:12;;;;;;;17.85;9.10;;;16.40;99.90;;;;;;6041994;23;20018;-85
2022/10/17 11:12:44;;;;;;;15.75;9.07;;;16.40;99.90;;;;;;6066963;23;20089;-84
2022/10/17 11:15:41;;;;;;;16.23;9.27;;;16.40;99.90;;;;;;6066689;23;20015;-85
2022/10/17 11:18:29;;;;;;;14.63;8.75;;;16.40;99.90;;;;;;6065720;23;20021;-84
2022/10/17 11:21:02;;;;;;;15.05;8.95;;;16.40;99.90;;;;;;6062735;23;20102;-84
2022/10/17 11:23:47;;;;;;;15.35;9.40;;;16.40;99.90;;;;;;6041671;23;20018;-84
2022/10/17 11:26:26;;;;;;;17.15;9.18;;;16.50;99.90;;;;;;6042172;23;20033;-84
2022/10/17 11:28:53;;;;;;;15.45;8.93;;;16.50;99.90;;;;;;6065985;23;20018;-85
2022/10/17 11:31:20;;;;;;;15.95;9.45;;;16.50;99.90;;;;;;6041193;23;20018;-85
2022/10/17 11:33:51;;;;;;;14.13;8.88;;;16.50;99.90;;;;;;6042385;23;20010;-85
2022/10/17 11:36:21;;;;;;;18.48;9.93;;;17.50;99.90;;;;;;6042963;23;20285;-84
2022/10/17 11:38:52;;;;;;;14.23;9.20;;;16.50;99.90;;;;;;6041357;23;20094;-85
2022/10/17 11:41:38;;;;;;;18.52;9.75;;;16.50;99.90;;;;;;6040597;23;20561;-85
2022/10/17 11:44:24;;;;;;;15.38;9.05;;;16.50;99.90;;;;;;6066096;23;20030;-85
2022/10/17 11:47:13;;;;;;;16.63;9.43;;;16.40;99.90;;;;;;6041979;23;20098;-83
2022/10/17 11:49:50;;;;;;;15.82;9.88;;;16.50;99.90;;;;;;6041287;23;20024;-85
2022/10/17 11:52:44;;;;;;;18.48;9.70;;;16.50;99.90;;;;;;6064563;23;20017;-85
2022/10/17 11:55:27;;;;;;;13.82;8.98;;;16.50;99.90;;;;;;6066366;23;20089;-85
2022/10/17 11:58:15;;;;;;;16.05;8.73;;;16.50;99.90;;;;;;6065572;23;20021;-85
2022/10/17 12:01:16;;;;;;;17.85;9.60;;;16.40;99.90;;;;;;6041148;23;20089;-84
2022/10/17 12:04:05;;;;;;;14.65;9.70;;;16.40;99.90;;;;;;6039114;23;20401;-85
2022/10/17 12:07:16;;;;;;;16.58;9.23;;;16.40;99.90;;;;;;6067742;23;20093;-84
2022/10/17 12:09:48;;;;;;;14.55;8.68;;;15.60;99.90;;;;;;6062066;23;20018;-84
2022/10/17 12:12:30;;;;;;;16.48;9.73;;;16.40;99.90;;;;;;6044246;23;20124;-85
2022/10/17 12:15:18;;;;;;;14.93;8.52;;;16.50;99.90;;;;;;6043497;23;20022;-84
2022/10/17 12:17:45;;;;;;;14.45;8.75;;;16.50;99.90;;;;;;6044855;23;20019;-84
2022/10/17 12:20:20;;;;;;;13.68;8.80;;;16.50;99.90;;;;;;6091860;23;20029;-84
2022/10/17 12:22:46;;;;;;;16.02;10.05;;;16.50;99.90;;;;;;6043311;23;20032;-84
2022/10/17 12:25:17;;;;;;;16.58;9.27;;;16.50;99.90;;;;;;6042653;23;20026;-83
2022/10/17 12:27:45;;;;;;;13.43;8.30;;;16.50;99.90;;;;;;6068431;23;20086;-83
2022/10/17 12:30:10;;;;;;;12.60;8.23;;;16.50;99.90;;;;;;6043415;23;20588;-83
2022/10/17 12:32:51;;;;;;;13.85;8.00;;;16.60;99.90;;;;;;6067667;23;20052;-83
2022/10/17 12:35:20;;;;;;;14.63;8.18;;;16.60;99.90;;;;;;6042317;23;20507;-83
2022/10/17 12:38:11;;;;;;;14.68;8.20;;;16.70;99.90;;;;;;6042723;23;20480;-84
2022/10/17 12:40:37;;;;;;;15.52;8.18;;;16.80;99.90;;;;;;6024806;23;20461;-84
2022/10/17 12:43:15;;;;;;;14.07;7.55;;;16.80;99.90;;;;;;6067517;23;20211;-84
2022/10/17 12:45:58;;;;;;;14.15;7.95;;;16.90;99.90;;;;;;6043291;23;20073;-86
2022/10/17 12:48:33;;;;;;;;;;;16.90;99.90;;;;;;6043686;23;20018;-86
2022/10/17 12:51:02;;;;;;;12.38;6.65;;;16.90;99.90;;;;;;6066863;23;20340;-85
2022/10/17 12:53:54;;;;;;;13.18;6.20;;;16.80;99.90;;;;;;6044138;23;20215;-86
2022/10/17 12:56:44;;;;;;;11.85;5.93;;;16.80;99.90;;;;;;6068043;23;20416;-86
2022/10/17 12:59:20;;;;;;;11.30;5.38;;;16.80;99.90;;;;;;6066517;23;20452;-84